createdAt,value
2019-02-07T00:02:19.971Z,6.89
2019-02-07T00:04:48.204Z,7.00
2019-02-07T00:07:16.569Z,6.85
2019-02-07T00:09:44.918Z,6.64
2019-02-07T00:12:13.283Z,6.81
2019-02-07T00:14:41.519Z,6.65
2019-02-07T00:17:09.802Z,7.20
2019-02-07T00:19:38.136Z,7.07
2019-02-07T00:22:08.344Z,6.50
2019-02-07T00:24:42.796Z,6.39
2019-02-07T00:27:06.627Z,6.35
2019-02-07T00:29:34.884Z,6.09
2019-02-07T00:32:03.183Z,6.87
2019-02-07T00:34:31.465Z,7.14
2019-02-07T00:36:59.993Z,6.27
2019-02-07T00:39:28.354Z,6.16
2019-02-07T00:41:56.634Z,7.64
2019-02-07T00:44:25.005Z,7.99
2019-02-07T00:46:53.261Z,8.20
2019-02-07T00:49:21.520Z,7.28
2019-02-07T00:51:49.856Z,6.90
2019-02-07T00:54:18.485Z,7.20
2019-02-07T00:56:46.814Z,7.12
2019-02-07T00:59:15.083Z,6.85
2019-02-07T01:01:43.341Z,6.47
2019-02-07T01:04:11.689Z,6.68
2019-02-07T01:06:39.990Z,7.27
2019-02-07T01:09:08.695Z,6.98
2019-02-07T01:11:37.036Z,6.99
2019-02-07T01:14:05.640Z,6.97
2019-02-07T01:16:33.910Z,7.00
2019-02-07T01:19:02.660Z,8.01
2019-02-07T01:21:30.935Z,7.26
2019-02-07T01:23:59.273Z,7.56
2019-02-07T01:26:27.569Z,7.42
2019-02-07T01:28:55.827Z,7.75
2019-02-07T01:31:24.092Z,7.16
2019-02-07T01:33:52.369Z,7.16
2019-02-07T01:36:20.648Z,7.45
2019-02-07T01:38:48.929Z,7.43
2019-02-07T01:41:17.559Z,7.86
2019-02-07T01:43:45.891Z,8.40
2019-02-07T01:46:14.153Z,7.78
2019-02-07T01:48:42.422Z,8.60
2019-02-07T01:51:11.175Z,8.35
2019-02-07T01:53:39.538Z,7.28
2019-02-07T01:56:07.943Z,7.09
2019-02-07T01:58:36.391Z,7.61
2019-02-07T02:01:04.825Z,6.96
2019-02-07T02:03:33.515Z,7.16
2019-02-07T02:06:02.446Z,7.86
2019-02-07T02:08:31.178Z,8.13
2019-02-07T02:10:59.554Z,8.41
2019-02-07T02:13:28.087Z,8.82
2019-02-07T02:15:56.368Z,7.74
2019-02-07T02:18:24.655Z,8.38
2019-02-07T02:20:52.924Z,7.91
2019-02-07T02:23:21.297Z,7.73
2019-02-07T02:25:50.038Z,7.27
2019-02-07T02:28:18.482Z,7.65
2019-02-07T02:30:47.148Z,7.60
2019-02-07T02:33:15.426Z,7.73
2019-02-07T02:35:43.716Z,6.95
2019-02-07T02:38:11.986Z,7.26
2019-02-07T02:40:40.242Z,7.57
2019-02-07T02:43:08.522Z,7.57
2019-02-07T02:45:37.975Z,8.06
2019-02-07T02:48:06.536Z,8.14
2019-02-07T02:50:34.789Z,7.59
2019-02-07T02:53:03.072Z,7.07
2019-02-07T02:55:35.712Z,8.04
2019-02-07T02:58:04.717Z,7.15
2019-02-07T03:00:40.546Z,7.17
2019-02-07T03:03:26.302Z,7.92
2019-02-07T03:06:07.981Z,7.82
2019-02-07T03:08:38.273Z,7.98
2019-02-07T03:11:13.943Z,8.44
2019-02-07T03:13:49.586Z,7.60
2019-02-07T03:16:19.515Z,7.93
2019-02-07T03:19:01.722Z,8.11
2019-02-07T03:21:31.652Z,8.64
2019-02-07T03:24:17.447Z,7.19
2019-02-07T03:27:03.483Z,6.99
2019-02-07T03:29:36.001Z,7.79
2019-02-07T03:32:12.630Z,7.65
2019-02-07T03:34:57.432Z,7.80
2019-02-07T03:37:32.724Z,8.09
2019-02-07T03:40:08.620Z,8.78
2019-02-07T03:42:44.598Z,7.61
2019-02-07T03:45:26.573Z,6.80
2019-02-07T03:48:02.180Z,7.73
2019-02-07T03:50:44.316Z,7.42
2019-02-07T03:53:30.482Z,7.04
2019-02-07T03:56:02.844Z,7.53
2019-02-07T04:01:26.150Z,7.19
2019-02-07T04:03:56.041Z,7.22
2019-02-07T04:06:37.859Z,7.56
2019-02-07T04:09:24.944Z,7.26
2019-02-07T04:12:03.584Z,7.83
2019-02-07T04:14:49.873Z,7.68
2019-02-07T04:17:19.786Z,7.31
2019-02-07T04:20:04.925Z,8.05
2019-02-07T04:22:43.563Z,7.99
2019-02-07T04:25:22.045Z,7.84
2019-02-07T04:27:52.242Z,7.46
2019-02-07T04:30:40.142Z,8.01
2019-02-07T04:33:28.386Z,8.34
2019-02-07T04:36:01.015Z,7.84
2019-02-07T04:38:30.946Z,7.01
2019-02-07T04:41:17.420Z,6.88
2019-02-07T04:44:03.429Z,6.97
2019-02-07T04:46:33.329Z,7.06
2019-02-07T04:49:19.068Z,7.27
2019-02-07T04:51:51.926Z,6.74
2019-02-07T04:54:21.816Z,7.14
2019-02-07T04:57:07.554Z,6.83
2019-02-07T04:59:42.893Z,6.81
2019-02-07T05:02:27.860Z,6.88
2019-02-07T05:05:06.427Z,6.86
2019-02-07T05:07:39.336Z,7.01
2019-02-07T05:10:29.631Z,7.42
2019-02-07T05:12:59.645Z,7.74
2019-02-07T05:15:31.969Z,6.92
2019-02-07T05:18:07.694Z,6.87
2019-02-07T05:20:43.796Z,6.71
2019-02-07T05:23:19.552Z,5.79
2019-02-07T05:26:01.645Z,6.47
2019-02-07T05:28:34.273Z,6.08
2019-02-07T05:31:04.487Z,6.87
2019-02-07T05:33:37.108Z,6.55
2019-02-07T05:36:07.225Z,5.97
2019-02-07T05:38:45.682Z,6.77
2019-02-07T05:41:15.587Z,6.93
2019-02-07T05:44:01.738Z,6.87
2019-02-07T05:46:51.073Z,5.99
2019-02-07T05:49:34.169Z,7.80
2019-02-07T05:52:20.212Z,6.80
2019-02-07T05:55:08.033Z,6.32
2019-02-07T05:57:46.938Z,6.20
2019-02-07T06:00:16.980Z,6.69
2019-02-07T06:02:49.787Z,6.08
2019-02-07T06:05:34.721Z,6.41
2019-02-07T06:08:19.892Z,5.95
2019-02-07T06:11:04.527Z,5.98
2019-02-07T06:13:34.618Z,6.71
2019-02-07T06:16:16.275Z,6.15
2019-02-07T06:19:02.097Z,6.34
2019-02-07T06:21:35.002Z,6.54
2019-02-07T06:24:07.865Z,6.86
2019-02-07T06:26:49.775Z,6.65
2019-02-07T06:29:19.688Z,7.01
2019-02-07T06:31:52.046Z,6.66
2019-02-07T06:34:38.059Z,6.36
2019-02-07T06:37:26.136Z,6.30
2019-02-07T06:40:12.619Z,6.63
2019-02-07T06:42:45.543Z,7.09
2019-02-07T06:45:18.295Z,6.63
2019-02-07T06:47:59.911Z,6.73
2019-02-07T06:50:38.325Z,6.57
2019-02-07T06:53:24.407Z,6.56
2019-02-07T06:56:12.868Z,6.83
2019-02-07T06:58:59.225Z,6.82
2019-02-07T07:01:37.572Z,6.85
2019-02-07T07:04:25.612Z,6.55
2019-02-07T07:07:11.933Z,7.33
2019-02-07T07:09:42.206Z,7.58
2019-02-07T07:12:21.227Z,7.16
2019-02-07T07:15:07.278Z,7.39
2019-02-07T07:17:39.870Z,7.82
2019-02-07T07:20:18.534Z,7.18
2019-02-07T07:22:48.523Z,7.95
2019-02-07T07:25:37.014Z,7.08
2019-02-07T07:28:06.988Z,7.00
2019-02-07T07:30:39.371Z,6.92
2019-02-07T07:33:25.575Z,6.34
2019-02-07T07:36:11.299Z,6.83
2019-02-07T07:38:49.965Z,6.60
2019-02-07T07:41:37.907Z,7.31
2019-02-07T07:44:16.618Z,7.12
2019-02-07T07:46:55.121Z,6.88
2019-02-07T07:49:30.721Z,7.49
2019-02-07T07:52:16.979Z,7.06
2019-02-07T07:54:46.894Z,6.78
2019-02-07T07:57:22.359Z,7.44
2019-02-07T07:59:54.990Z,7.25
2019-02-07T08:02:31.228Z,7.36
2019-02-07T08:05:09.865Z,7.21
2019-02-07T08:07:45.740Z,6.30
2019-02-07T08:10:28.375Z,6.30
2019-02-07T08:13:01.155Z,7.00
2019-02-07T08:15:31.062Z,7.48
2019-02-07T08:18:00.987Z,6.71
2019-02-07T08:20:33.983Z,7.31
2019-02-07T08:23:11.843Z,6.84
2019-02-07T08:25:50.549Z,7.05
2019-02-07T08:28:20.577Z,7.22
2019-02-07T08:30:52.891Z,7.87
2019-02-07T08:33:34.921Z,8.17
2019-02-07T08:36:14.612Z,7.82
2019-02-07T08:39:00.927Z,7.80
2019-02-07T08:41:34.134Z,7.70
2019-02-07T08:44:04.032Z,7.61
2019-02-07T08:46:40.180Z,7.95
2019-02-07T08:49:26.650Z,8.10
2019-02-07T08:51:59.308Z,7.71
2019-02-07T08:54:34.748Z,7.60
2019-02-07T08:57:10.433Z,7.59
2019-02-07T08:59:40.363Z,6.66
2019-02-07T09:02:10.549Z,7.84
2019-02-07T09:04:40.474Z,7.65
2019-02-07T09:07:22.429Z,8.19
2019-02-07T09:09:54.907Z,7.79
2019-02-07T09:12:25.086Z,7.69
2019-02-07T09:14:55.013Z,7.18
2019-02-07T09:17:24.948Z,7.87
2019-02-07T09:20:03.830Z,7.41
2019-02-07T09:22:36.581Z,7.21
2019-02-07T09:25:22.738Z,7.27
2019-02-07T09:28:08.490Z,7.18
2019-02-07T09:30:44.157Z,7.27
2019-02-07T09:33:26.898Z,6.99
2019-02-07T09:36:05.500Z,6.88
2019-02-07T09:38:46.581Z,7.88
2019-02-07T09:41:32.786Z,6.70
2019-02-07T09:44:02.703Z,7.08
2019-02-07T09:46:35.031Z,6.84
2019-02-07T09:49:13.902Z,7.47
2019-02-07T09:51:46.398Z,7.44
2019-02-07T09:54:34.461Z,6.66
2019-02-07T09:57:07.065Z,7.19
2019-02-07T09:59:46.089Z,6.84
2019-02-07T10:02:17.219Z,7.53
2019-02-07T10:04:49.730Z,7.77
2019-02-07T10:07:28.630Z,7.48
2019-02-07T10:10:07.393Z,7.03
2019-02-07T10:12:46.043Z,7.46
2019-02-07T10:15:24.725Z,7.13
2019-02-07T10:17:54.867Z,8.28
2019-02-07T10:20:27.467Z,7.44
2019-02-07T10:22:57.334Z,7.84
2019-02-07T10:25:43.347Z,7.30
2019-02-07T10:28:28.272Z,7.76
2019-02-07T10:31:14.453Z,8.06
2019-02-07T10:33:56.525Z,8.28
2019-02-07T10:36:30.269Z,8.44
2019-02-07T10:39:05.987Z,7.39
2019-02-07T10:41:35.898Z,7.99
2019-02-07T10:44:06.449Z,8.81
2019-02-07T10:46:52.794Z,8.39
2019-02-07T10:49:25.120Z,9.08
2019-02-07T10:51:55.017Z,7.68
2019-02-07T10:54:30.857Z,8.22
2019-02-07T10:57:17.012Z,7.85
2019-02-07T10:59:49.591Z,7.72
2019-02-07T11:02:27.170Z,7.70
2019-02-07T11:05:00.345Z,10.38
2019-02-07T11:07:36.062Z,9.62
2019-02-07T11:10:11.600Z,9.59
2019-02-07T11:12:50.364Z,10.66
2019-02-07T11:15:35.186Z,9.74
2019-02-07T11:18:11.150Z,10.43
2019-02-07T11:20:57.189Z,9.70
2019-02-07T11:23:43.190Z,9.57
2019-02-07T11:26:22.019Z,10.54
2019-02-07T11:29:08.173Z,10.58
2019-02-07T11:31:50.201Z,9.84
2019-02-07T11:34:32.120Z,10.79
2019-02-07T11:37:02.341Z,9.71
2019-02-07T11:39:32.284Z,10.23
2019-02-07T11:42:02.218Z,10.54
2019-02-07T11:44:32.258Z,10.16
2019-02-07T11:47:06.889Z,10.05
2019-02-07T11:49:56.740Z,10.29
2019-02-07T11:52:35.857Z,10.75
2019-02-07T11:55:13.839Z,10.56
2019-02-07T11:57:50.188Z,11.34
2019-02-07T12:00:24.559Z,10.74
2019-02-07T12:03:12.727Z,10.20
2019-02-07T12:05:45.841Z,10.44
2019-02-07T12:08:18.732Z,10.47
2019-02-07T12:11:04.510Z,9.97
2019-02-07T12:13:50.776Z,10.46
2019-02-07T12:16:26.479Z,10.33
2019-02-07T12:19:18.004Z,9.71
2019-02-07T12:21:54.930Z,10.19
2019-02-07T12:24:24.907Z,11.07
2019-02-07T12:26:57.791Z,11.56
2019-02-07T12:29:33.653Z,10.59
2019-02-07T12:32:12.842Z,10.36
2019-02-07T12:34:48.291Z,10.89
2019-02-07T12:37:20.249Z,11.15
2019-02-07T12:39:59.091Z,10.67
2019-02-07T12:42:29.070Z,10.51
2019-02-07T12:44:59.016Z,10.99
2019-02-07T12:47:45.262Z,10.23
2019-02-07T12:50:27.342Z,9.96
2019-02-07T12:52:57.330Z,10.68
2019-02-07T12:55:27.263Z,10.28
2019-02-07T12:58:02.947Z,10.74
2019-02-07T13:00:41.455Z,10.66
2019-02-07T13:03:17.068Z,10.35
2019-02-07T13:06:03.134Z,10.16
2019-02-07T13:08:46.554Z,10.20
2019-02-07T13:11:19.257Z,9.92
2019-02-07T13:14:07.263Z,10.41
2019-02-07T13:16:37.204Z,10.43
2019-02-07T13:19:23.250Z,10.99
2019-02-07T13:21:56.075Z,10.67
2019-02-07T13:24:28.589Z,10.55
2019-02-07T13:27:10.801Z,10.51
2019-02-07T13:29:46.196Z,10.75
2019-02-07T13:32:17.415Z,11.60
2019-02-07T13:34:50.054Z,11.03
2019-02-07T13:37:28.622Z,11.41
2019-02-07T13:40:14.719Z,12.24
2019-02-07T13:42:50.332Z,11.65
2019-02-07T13:45:32.195Z,10.84
2019-02-07T13:48:02.099Z,11.35
2019-02-07T13:50:32.700Z,11.41
2019-02-07T13:53:05.366Z,11.41
2019-02-07T13:55:50.555Z,10.88
2019-02-07T13:58:20.470Z,11.15
2019-02-07T14:00:50.472Z,11.37
2019-02-07T14:03:23.311Z,11.51
2019-02-07T14:05:53.726Z,11.32
2019-02-07T14:08:48.618Z,11.86
2019-02-07T14:11:33.304Z,11.34
2019-02-07T14:16:52.579Z,11.41
2019-02-07T14:19:22.585Z,11.25
2019-02-07T14:21:52.493Z,11.63
2019-02-07T14:24:22.831Z,12.63
2019-02-07T14:27:09.018Z,11.42
2019-02-07T14:29:47.854Z,11.34
2019-02-07T14:32:20.462Z,10.89
2019-02-07T14:35:06.838Z,11.85
2019-02-07T14:37:36.759Z,11.28
2019-02-07T14:40:28.314Z,12.05
2019-02-07T14:43:00.944Z,11.56
2019-02-07T14:45:36.314Z,11.50
2019-02-07T14:48:04.846Z,11.10
2019-02-07T14:50:33.198Z,11.44
2019-02-07T14:53:02.239Z,10.97
2019-02-07T14:55:30.510Z,11.38
2019-02-07T14:57:58.860Z,10.60
2019-02-07T15:00:27.384Z,10.63
2019-02-07T15:02:55.675Z,11.12
2019-02-07T15:05:24.119Z,10.59
2019-02-07T15:07:53.293Z,10.33
2019-02-07T15:10:22.042Z,10.94
2019-02-07T15:12:50.335Z,11.22
2019-02-07T15:15:24.730Z,10.95
2019-02-07T15:17:55.306Z,10.53
2019-02-07T15:20:26.141Z,11.19
2019-02-07T15:22:53.664Z,10.96
2019-02-07T15:25:22.313Z,11.44
2019-02-07T15:27:50.593Z,11.04
2019-02-07T15:30:22.001Z,11.37
2019-02-07T15:32:50.285Z,10.72
2019-02-07T15:35:27.739Z,11.79
2019-02-07T15:37:56.306Z,10.99
2019-02-07T15:40:25.887Z,11.46
2019-02-07T15:42:54.647Z,11.07
2019-02-07T15:45:23.057Z,11.20
2019-02-07T15:47:51.487Z,11.45
2019-02-07T15:50:22.385Z,12.37
2019-02-07T15:52:52.385Z,11.18
2019-02-07T15:55:20.769Z,11.39
2019-02-07T15:57:49.115Z,11.16
2019-02-07T16:00:41.007Z,11.09
2019-02-07T16:03:19.617Z,11.61
2019-02-07T16:05:47.911Z,11.14
2019-02-07T16:08:16.179Z,11.36
2019-02-07T16:10:44.546Z,11.01
2019-02-07T16:13:15.416Z,11.17
2019-02-07T16:15:43.780Z,11.07
2019-02-07T16:18:12.110Z,10.97
2019-02-07T16:20:48.668Z,10.97
2019-02-07T16:23:11.355Z,10.95
2019-02-07T16:25:39.623Z,11.15
2019-02-07T16:28:07.967Z,10.51
2019-02-07T16:30:36.407Z,10.60
2019-02-07T16:33:04.936Z,10.48
2019-02-07T16:35:33.375Z,10.53
2019-02-07T16:38:03.938Z,11.22
2019-02-07T16:40:39.416Z,10.64
2019-02-07T16:43:12.054Z,10.80
2019-02-07T16:45:40.823Z,10.72
2019-02-07T16:48:09.095Z,11.25
2019-02-07T16:50:37.535Z,10.47
2019-02-07T16:53:05.796Z,10.43
2019-02-07T16:55:34.097Z,10.98
2019-02-07T16:58:02.461Z,10.49
2019-02-07T17:00:33.371Z,10.14
2019-02-07T17:03:01.792Z,10.51
2019-02-07T17:05:30.076Z,10.69
2019-02-07T17:07:58.470Z,10.17
2019-02-07T17:10:35.165Z,10.16
2019-02-07T17:13:04.101Z,10.71
2019-02-07T17:15:32.441Z,10.78
2019-02-07T17:18:00.732Z,10.90
2019-02-07T17:20:32.675Z,10.31
2019-02-07T17:23:01.046Z,10.63
2019-02-07T17:25:32.816Z,11.02
2019-02-07T17:28:01.111Z,10.43
2019-02-07T17:30:30.049Z,10.18
2019-02-07T17:32:58.533Z,10.46
2019-02-07T17:35:26.875Z,11.05
2019-02-07T17:37:57.902Z,10.58
2019-02-07T17:40:27.200Z,10.39
2019-02-07T17:42:55.564Z,10.86
2019-02-07T17:45:28.375Z,10.34
2019-02-07T17:47:56.817Z,10.57
2019-02-07T17:50:31.303Z,10.22
2019-02-07T17:53:00.643Z,10.39
2019-02-07T17:55:29.166Z,10.45
2019-02-07T17:57:57.408Z,10.73
2019-02-07T18:00:51.910Z,10.77
2019-02-07T18:03:20.195Z,10.45
2019-02-07T18:05:48.539Z,10.40
2019-02-07T18:08:17.964Z,11.11
2019-02-07T18:10:46.564Z,11.21
2019-02-07T18:13:14.934Z,10.57
2019-02-07T18:15:43.230Z,10.44
2019-02-07T18:18:11.517Z,10.45
2019-02-07T18:20:39.805Z,10.18
2019-02-07T18:23:08.167Z,10.31
2019-02-07T18:25:36.500Z,10.16
2019-02-07T18:28:05.639Z,10.06
2019-02-07T18:30:34.018Z,10.42
2019-02-07T18:33:02.582Z,10.20
2019-02-07T18:35:30.873Z,10.50
2019-02-07T18:37:59.178Z,10.10
2019-02-07T18:40:29.953Z,9.98
2019-02-07T18:42:58.258Z,10.40
2019-02-07T18:45:26.789Z,10.23
2019-02-07T18:47:55.117Z,10.14
2019-02-07T18:50:29.262Z,10.15
2019-02-07T18:52:57.521Z,9.92
2019-02-07T18:55:25.880Z,10.47
2019-02-07T18:57:54.189Z,10.38
2019-02-07T19:00:28.061Z,9.54
2019-02-07T19:02:56.353Z,10.13
2019-02-07T19:05:24.811Z,10.21
2019-02-07T19:07:53.201Z,10.31
2019-02-07T19:10:24.256Z,10.33
2019-02-07T19:12:57.430Z,10.14
2019-02-07T19:15:31.404Z,10.29
2019-02-07T19:17:59.720Z,10.12
2019-02-07T19:20:28.062Z,10.31
2019-02-07T19:22:56.459Z,10.48
2019-02-07T19:25:24.876Z,10.40
2019-02-07T19:27:53.205Z,10.12
2019-02-07T19:30:26.491Z,9.80
2019-02-07T19:32:55.830Z,9.69
2019-02-07T19:35:24.224Z,9.96
2019-02-07T19:37:52.658Z,10.37
2019-02-07T19:40:21.912Z,9.76
2019-02-07T19:42:50.266Z,9.72
2019-02-07T19:45:23.942Z,10.42
2019-02-07T19:47:52.305Z,10.81
2019-02-07T19:50:30.269Z,10.16
2019-02-07T19:52:58.556Z,10.25
2019-02-07T19:55:30.049Z,10.08
2019-02-07T19:57:58.471Z,10.73
2019-02-07T20:00:28.906Z,10.28
2019-02-07T20:02:57.720Z,10.08
2019-02-07T20:05:26.104Z,10.31
2019-02-07T20:07:54.517Z,10.33
2019-02-07T20:10:27.704Z,10.19
2019-02-07T20:12:56.525Z,10.65
2019-02-07T20:15:27.452Z,10.42
2019-02-07T20:17:55.710Z,9.69
2019-02-07T20:20:24.279Z,9.82
2019-02-07T20:22:53.754Z,9.97
2019-02-07T20:25:22.597Z,10.00
2019-02-07T20:27:50.992Z,10.04
2019-02-07T20:30:31.531Z,9.96
2019-02-07T20:32:59.888Z,9.64
2019-02-07T20:35:28.260Z,10.09
2019-02-07T20:37:56.735Z,9.62
2019-02-07T20:40:27.377Z,10.15
2019-02-07T20:42:55.701Z,10.26
2019-02-07T20:45:24.244Z,10.10
2019-02-07T20:47:52.533Z,9.90
2019-02-07T20:50:25.418Z,10.23
2019-02-07T20:52:56.711Z,10.39
2019-02-07T20:55:25.550Z,10.17
2019-02-07T20:57:54.477Z,10.10
2019-02-07T21:00:31.675Z,10.16
2019-02-07T21:03:00.304Z,10.06
2019-02-07T21:05:30.283Z,10.22
2019-02-07T21:07:58.902Z,9.98
2019-02-07T21:10:31.935Z,10.34
2019-02-07T21:13:00.213Z,10.83
2019-02-07T21:15:28.934Z,10.23
2019-02-07T21:17:57.330Z,10.29
2019-02-07T21:20:28.406Z,10.44
2019-02-07T21:22:57.340Z,10.39
2019-02-07T21:25:31.136Z,10.51
2019-02-07T21:27:59.531Z,10.34
2019-02-07T21:30:30.410Z,10.29
2019-02-07T21:32:58.699Z,10.41
2019-02-07T21:35:31.421Z,10.06
2019-02-07T21:38:01.822Z,10.33
2019-02-07T21:40:33.938Z,10.40
2019-02-07T21:43:02.309Z,11.00
2019-02-07T21:45:31.281Z,10.18
2019-02-07T21:48:00.436Z,10.51
2019-02-07T21:50:32.434Z,10.58
2019-02-07T21:53:00.824Z,10.33
2019-02-07T21:55:30.846Z,10.24
2019-02-07T21:57:59.311Z,10.32
2019-02-07T22:00:36.545Z,10.69
2019-02-07T22:03:07.539Z,10.19
2019-02-07T22:05:36.077Z,10.64
2019-02-07T22:08:05.749Z,10.24
2019-02-07T22:10:34.132Z,10.16
2019-02-07T22:13:02.470Z,10.11
2019-02-07T22:15:31.080Z,10.08
2019-02-07T22:17:59.394Z,10.28
2019-02-07T22:20:31.223Z,10.04
2019-02-07T22:22:59.978Z,10.43
2019-02-07T22:25:28.538Z,10.25
2019-02-07T22:27:56.949Z,10.02
2019-02-07T22:30:28.407Z,9.96
2019-02-07T22:32:57.038Z,9.73
2019-02-07T22:35:26.155Z,9.57
2019-02-07T22:37:54.647Z,9.64
2019-02-07T22:40:24.460Z,9.44
2019-02-07T22:42:52.872Z,9.48
2019-02-07T22:45:23.734Z,9.37
2019-02-07T22:47:52.023Z,9.77
2019-02-07T22:50:22.240Z,9.49
2019-02-07T22:52:56.752Z,9.66
2019-02-07T22:55:20.805Z,9.94
2019-02-07T22:57:49.731Z,10.03
2019-02-07T23:00:30.483Z,9.72
2019-02-07T23:02:59.919Z,9.38
2019-02-07T23:05:28.230Z,10.11
2019-02-07T23:07:56.569Z,9.61
2019-02-07T23:10:24.970Z,9.80
2019-02-07T23:12:53.250Z,10.01
2019-02-07T23:15:21.938Z,9.83
2019-02-07T23:17:50.267Z,9.80
2019-02-07T23:20:18.692Z,9.92
2019-02-07T23:22:47.016Z,10.01
2019-02-07T23:25:15.389Z,9.90
2019-02-07T23:27:43.659Z,9.75
2019-02-07T23:30:14.401Z,10.40
2019-02-07T23:32:42.959Z,10.41
2019-02-07T23:35:12.644Z,10.22
2019-02-07T23:37:40.952Z,10.66
2019-02-07T23:40:14.830Z,10.46
2019-02-07T23:42:44.275Z,10.13
2019-02-07T23:45:20.980Z,10.12
2019-02-07T23:47:49.495Z,10.09
2019-02-07T23:50:18.144Z,9.90
2019-02-07T23:52:46.578Z,9.94
2019-02-07T23:55:15.501Z,10.24
2019-02-07T23:57:43.976Z,9.93
